sensor_id;sensor_type;location;lat;lon;timestamp;temperature;humidity
22827;DHT22;11580;52.562;13.418;2023-03-01T00:01:08;3.10;25.70
22827;DHT22;11580;52.562;13.418;2023-03-01T00:03:37;3.10;25.90
22827;DHT22;11580;52.562;13.418;2023-03-01T00:06:06;3.20;26.00
22827;DHT22;11580;52.562;13.418;2023-03-01T00:08:34;3.00;26.00
22827;DHT22;11580;52.562;13.418;2023-03-01T00:11:06;3.10;26.00
22827;DHT22;11580;52.562;13.418;2023-03-01T00:13:34;3.10;26.00
22827;DHT22;11580;52.562;13.418;2023-03-01T00:16:03;3.10;26.00
22827;DHT22;11580;52.562;13.418;2023-03-01T00:18:31;3.10;26.00
22827;DHT22;11580;52.562;13.418;2023-03-01T00:20:58;3.10;26.00
22827;DHT22;11580;52.562;13.418;2023-03-01T00:23:26;3.10;26.10
22827;DHT22;11580;52.562;13.418;2023-03-01T00:25:54;3.10;26.20
22827;DHT22;11580;52.562;13.418;2023-03-01T00:28:23;3.10;26.20
22827;DHT22;11580;52.562;13.418;2023-03-01T00:30:50;3.20;26.30
22827;DHT22;11580;52.562;13.418;2023-03-01T00:33:17;3.20;26.30
22827;DHT22;11580;52.562;13.418;2023-03-01T00:35:45;3.20;26.20
22827;DHT22;11580;52.562;13.418;2023-03-01T00:38:12;3.20;26.30
22827;DHT22;11580;52.562;13.418;2023-03-01T00:40:39;3.20;26.30
22827;DHT22;11580;52.562;13.418;2023-03-01T00:43:06;3.20;26.40
22827;DHT22;11580;52.562;13.418;2023-03-01T00:45:35;3.30;26.50
22827;DHT22;11580;52.562;13.418;2023-03-01T00:48:02;3.30;26.40
22827;DHT22;11580;52.562;13.418;2023-03-01T00:50:30;3.30;26.40
22827;DHT22;11580;52.562;13.418;2023-03-01T00:52:57;3.30;26.50
22827;DHT22;11580;52.562;13.418;2023-03-01T00:55:25;3.30;26.30
22827;DHT22;11580;52.562;13.418;2023-03-01T00:57:52;3.30;26.30
22827;DHT22;11580;52.562;13.418;2023-03-01T01:00:20;3.30;26.30
22827;DHT22;11580;52.562;13.418;2023-03-01T01:02:49;3.30;26.40
22827;DHT22;11580;52.562;13.418;2023-03-01T01:05:16;3.30;26.40
22827;DHT22;11580;52.562;13.418;2023-03-01T01:07:46;3.30;26.40
22827;DHT22;11580;52.562;13.418;2023-03-01T01:10:14;3.30;26.40
22827;DHT22;11580;52.562;13.418;2023-03-01T01:12:44;3.30;26.40
22827;DHT22;11580;52.562;13.418;2023-03-01T01:15:12;3.20;26.90
22827;DHT22;11580;52.562;13.418;2023-03-01T01:17:42;3.20;26.40
22827;DHT22;11580;52.562;13.418;2023-03-01T01:20:11;3.20;26.40
22827;DHT22;11580;52.562;13.418;2023-03-01T01:22:39;3.10;26.40
22827;DHT22;11580;52.562;13.418;2023-03-01T01:25:07;3.10;26.40
22827;DHT22;11580;52.562;13.418;2023-03-01T01:27:34;3.10;26.50
22827;DHT22;11580;52.562;13.418;2023-03-01T01:30:02;3.10;26.50
22827;DHT22;11580;52.562;13.418;2023-03-01T01:32:30;3.00;26.50
22827;DHT22;11580;52.562;13.418;2023-03-01T01:34:57;3.00;26.50
22827;DHT22;11580;52.562;13.418;2023-03-01T01:37:25;3.00;26.50
22827;DHT22;11580;52.562;13.418;2023-03-01T01:39:57;3.00;26.60
22827;DHT22;11580;52.562;13.418;2023-03-01T01:42:25;2.90;26.50
22827;DHT22;11580;52.562;13.418;2023-03-01T01:45:26;2.90;26.50
22827;DHT22;11580;52.562;13.418;2023-03-01T01:47:58;2.90;26.80
22827;DHT22;11580;52.562;13.418;2023-03-01T01:50:29;2.90;26.50
22827;DHT22;11580;52.562;13.418;2023-03-01T01:53:08;2.90;26.50
22827;DHT22;11580;52.562;13.418;2023-03-01T01:55:42;2.80;27.10
22827;DHT22;11580;52.562;13.418;2023-03-01T01:58:14;2.80;26.60
22827;DHT22;11580;52.562;13.418;2023-03-01T02:00:44;2.80;26.50
22827;DHT22;11580;52.562;13.418;2023-03-01T02:03:14;2.80;26.40
22827;DHT22;11580;52.562;13.418;2023-03-01T02:05:49;2.80;26.50
22827;DHT22;11580;52.562;13.418;2023-03-01T02:08:23;2.80;27.10
22827;DHT22;11580;52.562;13.418;2023-03-01T02:10:55;2.70;26.50
22827;DHT22;11580;52.562;13.418;2023-03-01T02:13:23;2.70;26.90
22827;DHT22;11580;52.562;13.418;2023-03-01T02:15:50;2.70;26.40
22827;DHT22;11580;52.562;13.418;2023-03-01T02:18:21;2.70;26.40
22827;DHT22;11580;52.562;13.418;2023-03-01T02:20:59;2.60;26.40
22827;DHT22;11580;52.562;13.418;2023-03-01T02:23:36;2.60;26.50
22827;DHT22;11580;52.562;13.418;2023-03-01T02:26:07;2.50;26.40
22827;DHT22;11580;52.562;13.418;2023-03-01T02:28:43;2.50;26.50
22827;DHT22;11580;52.562;13.418;2023-03-01T02:31:15;2.50;26.50
22827;DHT22;11580;52.562;13.418;2023-03-01T02:34:02;2.50;26.50
22827;DHT22;11580;52.562;13.418;2023-03-01T02:36:35;2.40;26.40
22827;DHT22;11580;52.562;13.418;2023-03-01T02:39:06;2.40;26.60
22827;DHT22;11580;52.562;13.418;2023-03-01T02:41:44;2.40;26.70
22827;DHT22;11580;52.562;13.418;2023-03-01T02:44:16;2.40;27.30
22827;DHT22;11580;52.562;13.418;2023-03-01T02:46:45;2.40;26.70
22827;DHT22;11580;52.562;13.418;2023-03-01T02:49:20;2.40;26.80
22827;DHT22;11580;52.562;13.418;2023-03-01T02:52:07;2.40;27.00
22827;DHT22;11580;52.562;13.418;2023-03-01T02:54:54;2.40;27.20
22827;DHT22;11580;52.562;13.418;2023-03-01T02:57:27;2.40;27.00
22827;DHT22;11580;52.562;13.418;2023-03-01T03:00:02;2.40;26.70
22827;DHT22;11580;52.562;13.418;2023-03-01T03:02:34;2.40;26.80
22827;DHT22;11580;52.562;13.418;2023-03-01T03:05:11;2.40;26.60
22827;DHT22;11580;52.562;13.418;2023-03-01T03:07:43;2.30;26.60
22827;DHT22;11580;52.562;13.418;2023-03-01T03:10:13;2.30;26.60
22827;DHT22;11580;52.562;13.418;2023-03-01T03:12:42;2.30;26.70
22827;DHT22;11580;52.562;13.418;2023-03-01T03:15:11;2.30;26.70
22827;DHT22;11580;52.562;13.418;2023-03-01T03:17:40;2.30;26.90
22827;DHT22;11580;52.562;13.418;2023-03-01T03:20:10;2.30;26.90
22827;DHT22;11580;52.562;13.418;2023-03-01T03:22:45;2.30;27.00
22827;DHT22;11580;52.562;13.418;2023-03-01T03:25:13;2.30;27.00
22827;DHT22;11580;52.562;13.418;2023-03-01T03:27:41;2.30;27.50
22827;DHT22;11580;52.562;13.418;2023-03-01T03:30:13;2.30;27.00
22827;DHT22;11580;52.562;13.418;2023-03-01T03:32:43;2.40;27.10
22827;DHT22;11580;52.562;13.418;2023-03-01T03:35:19;2.40;27.00
22827;DHT22;11580;52.562;13.418;2023-03-01T03:37:48;2.40;27.00
22827;DHT22;11580;52.562;13.418;2023-03-01T03:40:33;2.40;26.90
22827;DHT22;11580;52.562;13.418;2023-03-01T03:43:01;2.30;26.90
22827;DHT22;11580;52.562;13.418;2023-03-01T03:45:30;2.30;26.90
22827;DHT22;11580;52.562;13.418;2023-03-01T03:47:59;2.30;27.60
22827;DHT22;11580;52.562;13.418;2023-03-01T03:50:26;2.30;27.00
22827;DHT22;11580;52.562;13.418;2023-03-01T03:52:53;2.30;27.00
22827;DHT22;11580;52.562;13.418;2023-03-01T03:55:21;2.30;27.60
22827;DHT22;11580;52.562;13.418;2023-03-01T03:57:48;2.30;27.00
22827;DHT22;11580;52.562;13.418;2023-03-01T04:00:18;2.30;27.00
22827;DHT22;11580;52.562;13.418;2023-03-01T04:02:48;2.30;27.00
22827;DHT22;11580;52.562;13.418;2023-03-01T04:05:17;2.30;27.60
22827;DHT22;11580;52.562;13.418;2023-03-01T04:07:45;2.30;27.00
22827;DHT22;11580;52.562;13.418;2023-03-01T04:10:15;2.30;27.00
22827;DHT22;11580;52.562;13.418;2023-03-01T04:12:44;2.20;27.60
22827;DHT22;11580;52.562;13.418;2023-03-01T04:15:11;2.30;27.10
22827;DHT22;11580;52.562;13.418;2023-03-01T04:17:43;2.20;27.10
22827;DHT22;11580;52.562;13.418;2023-03-01T04:20:15;2.20;27.10
22827;DHT22;11580;52.562;13.418;2023-03-01T04:22:50;2.20;27.20
22827;DHT22;11580;52.562;13.418;2023-03-01T04:25:19;2.20;27.10
22827;DHT22;11580;52.562;13.418;2023-03-01T04:27:46;2.20;27.10
22827;DHT22;11580;52.562;13.418;2023-03-01T04:30:13;2.20;27.10
22827;DHT22;11580;52.562;13.418;2023-03-01T04:32:41;2.20;27.10
22827;DHT22;11580;52.562;13.418;2023-03-01T04:35:09;2.20;27.10
22827;DHT22;11580;52.562;13.418;2023-03-01T04:37:37;2.20;27.20
22827;DHT22;11580;52.562;13.418;2023-03-01T04:40:06;2.20;27.20
22827;DHT22;11580;52.562;13.418;2023-03-01T04:42:42;2.20;27.20
22827;DHT22;11580;52.562;13.418;2023-03-01T04:45:10;2.10;27.10
22827;DHT22;11580;52.562;13.418;2023-03-01T04:47:40;2.20;27.20
22827;DHT22;11580;52.562;13.418;2023-03-01T04:50:09;2.10;27.20
22827;DHT22;11580;52.562;13.418;2023-03-01T04:52:39;2.10;27.20
22827;DHT22;11580;52.562;13.418;2023-03-01T04:55:07;2.10;27.30
22827;DHT22;11580;52.562;13.418;2023-03-01T04:57:35;2.10;27.30
22827;DHT22;11580;52.562;13.418;2023-03-01T05:00:03;2.10;27.20
22827;DHT22;11580;52.562;13.418;2023-03-01T05:02:49;2.10;27.20
22827;DHT22;11580;52.562;13.418;2023-03-01T05:05:25;2.10;27.20
22827;DHT22;11580;52.562;13.418;2023-03-01T05:07:57;2.00;27.40
22827;DHT22;11580;52.562;13.418;2023-03-01T05:10:27;2.00;27.30
22827;DHT22;11580;52.562;13.418;2023-03-01T05:12:57;2.00;27.30
22827;DHT22;11580;52.562;13.418;2023-03-01T05:15:24;2.00;27.20
22827;DHT22;11580;52.562;13.418;2023-03-01T05:17:52;2.00;27.20
22827;DHT22;11580;52.562;13.418;2023-03-01T05:20:20;2.00;27.30
22827;DHT22;11580;52.562;13.418;2023-03-01T05:22:49;1.90;27.20
22827;DHT22;11580;52.562;13.418;2023-03-01T05:25:18;1.90;27.20
22827;DHT22;11580;52.562;13.418;2023-03-01T05:27:47;1.90;27.30
22827;DHT22;11580;52.562;13.418;2023-03-01T05:30:15;1.90;27.30
22827;DHT22;11580;52.562;13.418;2023-03-01T05:32:45;1.90;27.30
22827;DHT22;11580;52.562;13.418;2023-03-01T05:35:14;1.80;27.30
22827;DHT22;11580;52.562;13.418;2023-03-01T05:37:45;1.80;27.40
22827;DHT22;11580;52.562;13.418;2023-03-01T05:40:15;1.90;27.60
22827;DHT22;11580;52.562;13.418;2023-03-01T05:42:46;1.80;27.60
22827;DHT22;11580;52.562;13.418;2023-03-01T05:45:14;1.80;27.70
22827;DHT22;11580;52.562;13.418;2023-03-01T05:47:44;1.70;28.20
22827;DHT22;11580;52.562;13.418;2023-03-01T05:50:13;1.70;28.30
22827;DHT22;11580;52.562;13.418;2023-03-01T05:52:45;1.70;27.80
22827;DHT22;11580;52.562;13.418;2023-03-01T05:55:15;1.70;27.80
22827;DHT22;11580;52.562;13.418;2023-03-01T05:57:44;1.70;27.90
22827;DHT22;11580;52.562;13.418;2023-03-01T06:00:14;1.70;27.90
22827;DHT22;11580;52.562;13.418;2023-03-01T06:02:42;1.70;28.10
22827;DHT22;11580;52.562;13.418;2023-03-01T06:05:11;1.70;28.10
22827;DHT22;11580;52.562;13.418;2023-03-01T06:07:39;1.80;28.30
22827;DHT22;11580;52.562;13.418;2023-03-01T06:10:09;1.80;28.40
22827;DHT22;11580;52.562;13.418;2023-03-01T06:12:39;1.80;28.50
22827;DHT22;11580;52.562;13.418;2023-03-01T06:15:10;1.80;28.60
22827;DHT22;11580;52.562;13.418;2023-03-01T06:17:40;1.90;28.70
22827;DHT22;11580;52.562;13.418;2023-03-01T06:20:11;1.90;28.60
22827;DHT22;11580;52.562;13.418;2023-03-01T06:22:40;2.00;28.70
22827;DHT22;11580;52.562;13.418;2023-03-01T06:25:09;2.00;28.70
22827;DHT22;11580;52.562;13.418;2023-03-01T06:27:36;2.10;28.70
22827;DHT22;11580;52.562;13.418;2023-03-01T06:30:04;2.10;29.20
22827;DHT22;11580;52.562;13.418;2023-03-01T06:32:35;2.10;28.70
22827;DHT22;11580;52.562;13.418;2023-03-01T06:35:03;2.20;28.90
22827;DHT22;11580;52.562;13.418;2023-03-01T06:37:30;2.20;28.80
22827;DHT22;11580;52.562;13.418;2023-03-01T06:39:57;2.20;28.90
22827;DHT22;11580;52.562;13.418;2023-03-01T06:42:25;2.30;29.50
22827;DHT22;11580;52.562;13.418;2023-03-01T06:44:52;2.30;29.50
22827;DHT22;11580;52.562;13.418;2023-03-01T06:47:19;2.40;29.00
22827;DHT22;11580;52.562;13.418;2023-03-01T06:49:48;2.40;29.00
22827;DHT22;11580;52.562;13.418;2023-03-01T06:52:15;2.50;29.70
22827;DHT22;11580;52.562;13.418;2023-03-01T06:54:42;2.60;29.20
22827;DHT22;11580;52.562;13.418;2023-03-01T06:57:09;2.60;29.20
22827;DHT22;11580;52.562;13.418;2023-03-01T06:59:36;2.70;29.20
22827;DHT22;11580;52.562;13.418;2023-03-01T07:02:03;2.80;29.20
22827;DHT22;11580;52.562;13.418;2023-03-01T07:04:30;2.90;29.20
22827;DHT22;11580;52.562;13.418;2023-03-01T07:06:59;2.90;29.70
22827;DHT22;11580;52.562;13.418;2023-03-01T07:09:26;3.00;29.20
22827;DHT22;11580;52.562;13.418;2023-03-01T07:11:53;3.10;29.20
22827;DHT22;11580;52.562;13.418;2023-03-01T07:14:20;3.20;29.20
22827;DHT22;11580;52.562;13.418;2023-03-01T07:16:50;3.30;29.80
22827;DHT22;11580;52.562;13.418;2023-03-01T07:19:18;3.30;29.20
22827;DHT22;11580;52.562;13.418;2023-03-01T07:21:45;3.40;29.20
22827;DHT22;11580;52.562;13.418;2023-03-01T07:24:14;3.50;29.30
22827;DHT22;11580;52.562;13.418;2023-03-01T07:26:41;3.60;29.40
22827;DHT22;11580;52.562;13.418;2023-03-01T07:29:10;3.70;29.90
22827;DHT22;11580;52.562;13.418;2023-03-01T07:31:37;3.80;29.40
22827;DHT22;11580;52.562;13.418;2023-03-01T07:34:05;3.80;29.40
22827;DHT22;11580;52.562;13.418;2023-03-01T07:36:32;4.00;29.50
22827;DHT22;11580;52.562;13.418;2023-03-01T07:38:59;4.00;29.90
22827;DHT22;11580;52.562;13.418;2023-03-01T07:41:29;4.10;29.30
22827;DHT22;11580;52.562;13.418;2023-03-01T07:43:56;4.30;29.40
22827;DHT22;11580;52.562;13.418;2023-03-01T07:46:23;4.30;29.30
22827;DHT22;11580;52.562;13.418;2023-03-01T07:48:51;4.40;29.30
22827;DHT22;11580;52.562;13.418;2023-03-01T07:51:18;4.60;29.90
22827;DHT22;11580;52.562;13.418;2023-03-01T07:53:46;4.60;29.30
22827;DHT22;11580;52.562;13.418;2023-03-01T07:56:15;4.80;29.30
22827;DHT22;11580;52.562;13.418;2023-03-01T07:58:45;4.90;29.20
22827;DHT22;11580;52.562;13.418;2023-03-01T08:01:14;5.00;29.70
22827;DHT22;11580;52.562;13.418;2023-03-01T08:03:42;5.10;29.00
22827;DHT22;11580;52.562;13.418;2023-03-01T08:06:11;5.20;28.90
22827;DHT22;11580;52.562;13.418;2023-03-01T08:08:40;5.30;28.70
22827;DHT22;11580;52.562;13.418;2023-03-01T08:11:10;5.50;28.80
22827;DHT22;11580;52.562;13.418;2023-03-01T08:13:38;5.60;28.70
22827;DHT22;11580;52.562;13.418;2023-03-01T08:16:09;5.70;29.40
22827;DHT22;11580;52.562;13.418;2023-03-01T08:18:39;5.80;28.50
22827;DHT22;11580;52.562;13.418;2023-03-01T08:21:07;6.00;28.70
22827;DHT22;11580;52.562;13.418;2023-03-01T08:23:36;6.10;28.50
22827;DHT22;11580;52.562;13.418;2023-03-01T08:26:05;6.20;28.50
22827;DHT22;11580;52.562;13.418;2023-03-01T08:28:33;6.30;28.30
22827;DHT22;11580;52.562;13.418;2023-03-01T08:31:01;6.50;28.30
22827;DHT22;11580;52.562;13.418;2023-03-01T08:33:30;6.60;28.30
22827;DHT22;11580;52.562;13.418;2023-03-01T08:36:04;6.70;28.00
22827;DHT22;11580;52.562;13.418;2023-03-01T08:38:32;6.80;27.30
22827;DHT22;11580;52.562;13.418;2023-03-01T08:41:00;6.90;27.90
22827;DHT22;11580;52.562;13.418;2023-03-01T08:43:28;7.00;27.80
22827;DHT22;11580;52.562;13.418;2023-03-01T08:45:55;7.20;27.80
22827;DHT22;11580;52.562;13.418;2023-03-01T08:48:22;7.30;27.60
22827;DHT22;11580;52.562;13.418;2023-03-01T08:50:51;7.40;27.70
22827;DHT22;11580;52.562;13.418;2023-03-01T08:53:18;7.50;28.10
22827;DHT22;11580;52.562;13.418;2023-03-01T08:55:45;7.60;28.30
22827;DHT22;11580;52.562;13.418;2023-03-01T08:58:13;7.70;27.40
22827;DHT22;11580;52.562;13.418;2023-03-01T09:00:40;7.80;27.30
22827;DHT22;11580;52.562;13.418;2023-03-01T09:03:07;7.90;27.10
22827;DHT22;11580;52.562;13.418;2023-03-01T09:05:34;7.90;27.00
22827;DHT22;11580;52.562;13.418;2023-03-01T09:08:04;8.00;26.90
22827;DHT22;11580;52.562;13.418;2023-03-01T09:10:31;8.10;26.50
22827;DHT22;11580;52.562;13.418;2023-03-01T09:12:58;8.20;26.70
22827;DHT22;11580;52.562;13.418;2023-03-01T09:15:25;8.20;26.60
22827;DHT22;11580;52.562;13.418;2023-03-01T09:17:52;8.30;26.60
22827;DHT22;11580;52.562;13.418;2023-03-01T09:20:20;8.40;26.50
22827;DHT22;11580;52.562;13.418;2023-03-01T09:22:47;8.40;26.40
22827;DHT22;11580;52.562;13.418;2023-03-01T09:25:16;8.50;26.20
22827;DHT22;11580;52.562;13.418;2023-03-01T09:27:43;8.50;25.70
22827;DHT22;11580;52.562;13.418;2023-03-01T09:30:11;8.50;25.80
22827;DHT22;11580;52.562;13.418;2023-03-01T09:32:38;8.60;25.80
22827;DHT22;11580;52.562;13.418;2023-03-01T09:35:08;8.60;25.90
22827;DHT22;11580;52.562;13.418;2023-03-01T09:37:36;8.70;25.80
22827;DHT22;11580;52.562;13.418;2023-03-01T09:40:07;8.70;25.60
22827;DHT22;11580;52.562;13.418;2023-03-01T09:42:50;8.80;25.40
22827;DHT22;11580;52.562;13.418;2023-03-01T09:45:27;8.90;24.60
22827;DHT22;11580;52.562;13.418;2023-03-01T09:48:00;9.00;24.70
22827;DHT22;11580;52.562;13.418;2023-03-01T09:50:34;9.00;25.20
22827;DHT22;11580;52.562;13.418;2023-03-01T09:53:10;9.10;24.60
22827;DHT22;11580;52.562;13.418;2023-03-01T09:55:43;9.10;24.70
22827;DHT22;11580;52.562;13.418;2023-03-01T09:58:30;9.20;24.80
22827;DHT22;11580;52.562;13.418;2023-03-01T10:01:25;9.30;24.00
22827;DHT22;11580;52.562;13.418;2023-03-01T10:04:23;9.40;24.00
22827;DHT22;11580;52.562;13.418;2023-03-01T10:07:03;9.50;23.80
22827;DHT22;11580;52.562;13.418;2023-03-01T10:09:40;9.50;24.10
22827;DHT22;11580;52.562;13.418;2023-03-01T10:12:12;9.60;24.70
22827;DHT22;11580;52.562;13.418;2023-03-01T10:14:50;9.70;24.20
22827;DHT22;11580;52.562;13.418;2023-03-01T10:17:28;9.70;23.50
22827;DHT22;11580;52.562;13.418;2023-03-01T10:20:16;9.80;24.00
22827;DHT22;11580;52.562;13.418;2023-03-01T10:22:46;9.80;23.30
22827;DHT22;11580;52.562;13.418;2023-03-01T10:25:33;9.90;24.30
22827;DHT22;11580;52.562;13.418;2023-03-01T10:28:17;9.90;23.60
22827;DHT22;11580;52.562;13.418;2023-03-01T10:30:48;10.00;23.00
22827;DHT22;11580;52.562;13.418;2023-03-01T10:33:17;10.10;23.90
22827;DHT22;11580;52.562;13.418;2023-03-01T10:35:47;10.10;22.90
22827;DHT22;11580;52.562;13.418;2023-03-01T10:38:16;10.10;23.20
22827;DHT22;11580;52.562;13.418;2023-03-01T10:40:51;10.20;23.70
22827;DHT22;11580;52.562;13.418;2023-03-01T10:43:21;10.20;21.80
22827;DHT22;11580;52.562;13.418;2023-03-01T10:45:51;10.20;22.80
22827;DHT22;11580;52.562;13.418;2023-03-01T10:48:20;10.30;22.70
22827;DHT22;11580;52.562;13.418;2023-03-01T10:51:04;10.30;22.70
22827;DHT22;11580;52.562;13.418;2023-03-01T10:53:35;10.40;22.90
22827;DHT22;11580;52.562;13.418;2023-03-01T10:56:07;10.40;22.40
22827;DHT22;11580;52.562;13.418;2023-03-01T10:58:36;10.50;22.30
22827;DHT22;11580;52.562;13.418;2023-03-01T11:01:25;10.50;22.60
22827;DHT22;11580;52.562;13.418;2023-03-01T11:04:10;10.60;21.10
22827;DHT22;11580;52.562;13.418;2023-03-01T11:06:41;10.60;20.80
22827;DHT22;11580;52.562;13.418;2023-03-01T11:09:15;10.70;22.30
22827;DHT22;11580;52.562;13.418;2023-03-01T11:11:45;10.90;21.20
22827;DHT22;11580;52.562;13.418;2023-03-01T11:14:20;10.80;22.30
22827;DHT22;11580;52.562;13.418;2023-03-01T11:16:59;10.90;22.20
22827;DHT22;11580;52.562;13.418;2023-03-01T11:19:28;10.90;20.50
22827;DHT22;11580;52.562;13.418;2023-03-01T11:21:59;11.00;22.30
22827;DHT22;11580;52.562;13.418;2023-03-01T11:24:34;11.10;21.60
22827;DHT22;11580;52.562;13.418;2023-03-01T11:27:18;11.10;21.30
22827;DHT22;11580;52.562;13.418;2023-03-01T11:29:51;11.20;20.00
22827;DHT22;11580;52.562;13.418;2023-03-01T11:32:28;11.20;21.10
22827;DHT22;11580;52.562;13.418;2023-03-01T11:35:03;11.30;20.70
22827;DHT22;11580;52.562;13.418;2023-03-01T11:37:40;11.30;20.90
22827;DHT22;11580;52.562;13.418;2023-03-01T11:40:13;11.40;20.80
22827;DHT22;11580;52.562;13.418;2023-03-01T11:42:53;11.40;20.50
22827;DHT22;11580;52.562;13.418;2023-03-01T11:45:37;11.40;19.50
22827;DHT22;11580;52.562;13.418;2023-03-01T11:48:36;11.40;18.70
22827;DHT22;11580;52.562;13.418;2023-03-01T11:51:19;11.40;18.30
22827;DHT22;11580;52.562;13.418;2023-03-01T11:54:03;11.40;18.60
22827;DHT22;11580;52.562;13.418;2023-03-01T11:56:39;11.40;18.40
22827;DHT22;11580;52.562;13.418;2023-03-01T11:59:32;11.40;19.60
22827;DHT22;11580;52.562;13.418;2023-03-01T12:02:40;11.30;18.10
22827;DHT22;11580;52.562;13.418;2023-03-01T12:05:54;11.30;18.10
22827;DHT22;11580;52.562;13.418;2023-03-01T12:08:56;11.40;18.00
22827;DHT22;11580;52.562;13.418;2023-03-01T12:11:42;11.30;18.80
22827;DHT22;11580;52.562;13.418;2023-03-01T12:17:40;11.40;18.40
22827;DHT22;11580;52.562;13.418;2023-03-01T12:20:25;11.40;17.50
22827;DHT22;11580;52.562;13.418;2023-03-01T12:23:21;11.40;18.50
22827;DHT22;11580;52.562;13.418;2023-03-01T12:26:10;11.40;17.80
22827;DHT22;11580;52.562;13.418;2023-03-01T12:29:02;11.40;18.30
22827;DHT22;11580;52.562;13.418;2023-03-01T12:32:20;11.40;18.00
22827;DHT22;11580;52.562;13.418;2023-03-01T12:35:34;11.40;17.40
22827;DHT22;11580;52.562;13.418;2023-03-01T12:38:17;11.40;17.40
22827;DHT22;11580;52.562;13.418;2023-03-01T12:44:13;11.50;17.50
22827;DHT22;11580;52.562;13.418;2023-03-01T12:47:05;11.50;17.90
22827;DHT22;11580;52.562;13.418;2023-03-01T12:49:43;11.50;17.60
22827;DHT22;11580;52.562;13.418;2023-03-01T12:52:16;11.50;18.60
22827;DHT22;11580;52.562;13.418;2023-03-01T12:54:51;11.60;18.20
22827;DHT22;11580;52.562;13.418;2023-03-01T12:57:28;11.60;17.60
22827;DHT22;11580;52.562;13.418;2023-03-01T13:00:17;11.70;17.50
22827;DHT22;11580;52.562;13.418;2023-03-01T13:02:59;11.70;16.80
22827;DHT22;11580;52.562;13.418;2023-03-01T13:05:40;11.70;17.40
22827;DHT22;11580;52.562;13.418;2023-03-01T13:08:18;11.70;18.00
22827;DHT22;11580;52.562;13.418;2023-03-01T13:10:55;11.80;17.40
22827;DHT22;11580;52.562;13.418;2023-03-01T13:13:26;11.80;16.90
22827;DHT22;11580;52.562;13.418;2023-03-01T13:15:54;11.80;17.70
22827;DHT22;11580;52.562;13.418;2023-03-01T13:18:32;11.90;18.00
22827;DHT22;11580;52.562;13.418;2023-03-01T13:21:02;11.80;16.10
22827;DHT22;11580;52.562;13.418;2023-03-01T13:23:34;11.90;17.80
22827;DHT22;11580;52.562;13.418;2023-03-01T13:26:10;11.90;17.40
22827;DHT22;11580;52.562;13.418;2023-03-01T13:29:00;11.90;17.20
22827;DHT22;11580;52.562;13.418;2023-03-01T13:31:57;11.90;16.30
22827;DHT22;11580;52.562;13.418;2023-03-01T13:34:46;11.90;16.70
22827;DHT22;11580;52.562;13.418;2023-03-01T13:37:31;11.90;16.30
22827;DHT22;11580;52.562;13.418;2023-03-01T13:43:30;11.90;17.80
22827;DHT22;11580;52.562;13.418;2023-03-01T13:46:00;11.90;17.10
22827;DHT22;11580;52.562;13.418;2023-03-01T13:48:34;11.90;18.20
22827;DHT22;11580;52.562;13.418;2023-03-01T13:51:03;11.90;18.30
22827;DHT22;11580;52.562;13.418;2023-03-01T13:53:35;12.00;18.00
22827;DHT22;11580;52.562;13.418;2023-03-01T13:56:09;12.00;17.90
22827;DHT22;11580;52.562;13.418;2023-03-01T13:58:49;12.00;17.80
22827;DHT22;11580;52.562;13.418;2023-03-01T14:01:24;12.00;17.00
22827;DHT22;11580;52.562;13.418;2023-03-01T14:03:54;12.00;17.40
22827;DHT22;11580;52.562;13.418;2023-03-01T14:06:23;12.00;18.40
22827;DHT22;11580;52.562;13.418;2023-03-01T14:09:03;12.00;18.30
22827;DHT22;11580;52.562;13.418;2023-03-01T14:12:15;12.00;17.30
22827;DHT22;11580;52.562;13.418;2023-03-01T14:14:58;12.10;17.40
22827;DHT22;11580;52.562;13.418;2023-03-01T14:17:44;12.10;17.90
22827;DHT22;11580;52.562;13.418;2023-03-01T14:20:21;12.10;17.30
22827;DHT22;11580;52.562;13.418;2023-03-01T14:22:53;12.10;18.20
22827;DHT22;11580;52.562;13.418;2023-03-01T14:25:25;12.10;18.10
22827;DHT22;11580;52.562;13.418;2023-03-01T14:27:58;12.10;18.20
22827;DHT22;11580;52.562;13.418;2023-03-01T14:30:34;12.10;18.20
22827;DHT22;11580;52.562;13.418;2023-03-01T14:33:05;12.10;17.70
22827;DHT22;11580;52.562;13.418;2023-03-01T14:35:52;12.10;18.40
22827;DHT22;11580;52.562;13.418;2023-03-01T14:38:23;12.10;17.40
22827;DHT22;11580;52.562;13.418;2023-03-01T14:40:58;12.20;18.60
22827;DHT22;11580;52.562;13.418;2023-03-01T14:43:29;12.10;18.20
22827;DHT22;11580;52.562;13.418;2023-03-01T14:45:59;12.10;18.40
22827;DHT22;11580;52.562;13.418;2023-03-01T14:48:28;12.10;18.20
22827;DHT22;11580;52.562;13.418;2023-03-01T14:50:57;12.10;18.00
22827;DHT22;11580;52.562;13.418;2023-03-01T14:53:27;12.10;18.50
22827;DHT22;11580;52.562;13.418;2023-03-01T14:56:00;12.10;18.20
22827;DHT22;11580;52.562;13.418;2023-03-01T14:58:29;12.10;18.40
22827;DHT22;11580;52.562;13.418;2023-03-01T15:01:02;12.20;18.40
22827;DHT22;11580;52.562;13.418;2023-03-01T15:03:33;12.10;17.90
22827;DHT22;11580;52.562;13.418;2023-03-01T15:06:05;12.20;18.10
22827;DHT22;11580;52.562;13.418;2023-03-01T15:08:34;12.10;18.10
22827;DHT22;11580;52.562;13.418;2023-03-01T15:11:15;12.10;18.20
22827;DHT22;11580;52.562;13.418;2023-03-01T15:13:47;12.10;18.10
22827;DHT22;11580;52.562;13.418;2023-03-01T15:16:18;12.00;18.40
22827;DHT22;11580;52.562;13.418;2023-03-01T15:18:50;12.00;18.20
22827;DHT22;11580;52.562;13.418;2023-03-01T15:21:22;12.00;18.10
22827;DHT22;11580;52.562;13.418;2023-03-01T15:23:53;12.10;18.50
22827;DHT22;11580;52.562;13.418;2023-03-01T15:26:27;12.10;18.00
22827;DHT22;11580;52.562;13.418;2023-03-01T15:28:58;12.00;17.70
22827;DHT22;11580;52.562;13.418;2023-03-01T15:31:29;11.90;18.00
22827;DHT22;11580;52.562;13.418;2023-03-01T15:34:19;11.90;18.00
22827;DHT22;11580;52.562;13.418;2023-03-01T15:36:50;11.80;17.30
22827;DHT22;11580;52.562;13.418;2023-03-01T15:39:43;11.80;18.30
22827;DHT22;11580;52.562;13.418;2023-03-01T15:42:36;11.80;17.20
22827;DHT22;11580;52.562;13.418;2023-03-01T15:45:08;11.80;17.30
22827;DHT22;11580;52.562;13.418;2023-03-01T15:47:40;11.70;17.90
22827;DHT22;11580;52.562;13.418;2023-03-01T15:50:16;11.70;17.90
22827;DHT22;11580;52.562;13.418;2023-03-01T15:52:46;11.70;17.70
22827;DHT22;11580;52.562;13.418;2023-03-01T15:55:19;11.60;18.60
22827;DHT22;11580;52.562;13.418;2023-03-01T15:57:49;11.60;17.90
22827;DHT22;11580;52.562;13.418;2023-03-01T16:00:17;11.50;18.50
22827;DHT22;11580;52.562;13.418;2023-03-01T16:02:47;11.50;18.60
22827;DHT22;11580;52.562;13.418;2023-03-01T16:05:19;11.40;18.40
22827;DHT22;11580;52.562;13.418;2023-03-01T16:07:49;11.40;18.20
22827;DHT22;11580;52.562;13.418;2023-03-01T16:10:16;11.30;18.60